Time;durP1;ratioP1;P1;durP2;ratioP2;P2;SDS_P1;SDS_P2;PMS_P1;PMS_P2;Temp;Humidity;BMP_temperature;BMP_pressure;BME280_temperature;BME280_humidity;BME280_pressure;Samples;Min_cycle;Max_cycle;Signal;HPM_P1;HPM_P2
2023/12/23 00:02:22;;;;;;;6.30;1.00;;;;;;;6.12;100.00;100813.47;5057735;28;20037;-61
2023/12/23 00:04:48;;;;;;;4.88;1.30;;;;;;;6.11;100.00;100823.69;5048518;28;20076;-63
2023/12/23 00:07:14;;;;;;;3.75;0.85;;;;;;;6.10;100.00;100821.91;5049061;28;20028;-62
2023/12/23 00:09:40;;;;;;;3.88;0.80;;;;;;;6.10;100.00;100825.38;5045705;28;20044;-62
2023/12/23 00:12:08;;;;;;;4.00;0.98;;;;;;;6.10;100.00;100833.09;5038149;28;20024;-63
2023/12/23 00:14:33;;;;;;;2.08;0.80;;;;;;;6.11;100.00;100823.69;5047546;28;20021;-62
2023/12/23 00:16:59;;;;;;;3.00;1.13;;;;;;;6.09;100.00;100812.44;5048341;28;20029;-63
2023/12/23 00:19:24;;;;;;;5.35;1.00;;;;;;;6.09;100.00;100817.59;5048264;28;20044;-62
2023/12/23 00:21:49;;;;;;;5.40;1.15;;;;;;;6.10;100.00;100814.19;5047411;28;20566;-62
2023/12/23 00:24:14;;;;;;;5.90;1.20;;;;;;;6.10;100.00;100806.47;5047095;28;20017;-61
2023/12/23 00:26:40;;;;;;;7.32;1.10;;;;;;;6.10;100.00;100801.34;5049284;28;20027;-62
2023/12/23 00:29:05;;;;;;;4.88;1.20;;;;;;;6.10;100.00;100797.09;5045416;28;20303;-63
2023/12/23 00:31:30;;;;;;;5.85;1.00;;;;;;;6.10;100.00;100797.09;5046145;28;20043;-62
2023/12/23 00:33:56;;;;;;;5.85;1.70;;;;;;;6.13;100.00;100811.81;5048917;28;20366;-61
2023/12/23 00:36:21;;;;;;;2.88;1.30;;;;;;;6.13;100.00;100806.66;5045865;28;20110;-62
2023/12/23 00:38:46;;;;;;;7.53;1.92;;;;;;;6.13;100.00;100791.22;5055584;28;20377;-62
2023/12/23 00:41:11;;;;;;;7.95;1.92;;;;;;;6.15;100.00;100788.72;5053878;28;20021;-62
2023/12/23 00:43:37;;;;;;;7.63;1.90;;;;;;;6.13;100.00;100780.94;5046038;28;20476;-62
2023/12/23 00:46:02;;;;;;;7.18;1.88;;;;;;;6.11;100.00;100788.56;5053796;28;20021;-63
2023/12/23 00:48:27;;;;;;;6.40;1.65;;;;;;;6.12;100.00;100799.72;5039344;28;20428;-62
2023/12/23 00:50:53;;;;;;;6.60;1.88;;;;;;;6.12;100.00;100792.91;5051200;28;20033;-62
2023/12/23 00:53:18;;;;;;;3.53;1.80;;;;;;;6.13;100.00;100768.06;5042501;28;20044;-62
2023/12/23 00:55:43;;;;;;;7.00;1.98;;;;;;;6.12;100.00;100768.84;5044541;28;20032;-62
2023/12/23 00:58:09;;;;;;;5.85;1.38;;;;;;;6.12;100.00;100766.28;5043280;28;20037;-63
2023/12/23 01:00:34;;;;;;;9.20;2.33;;;;;;;6.12;100.00;100771.41;5028584;28;20025;-62
2023/12/23 01:02:59;;;;;;;5.15;1.85;;;;;;;6.12;100.00;100768.84;5045799;28;20044;-63
2023/12/23 01:05:24;;;;;;;5.80;1.58;;;;;;;6.12;100.00;100766.28;5046730;28;20485;-61
2023/12/23 01:07:50;;;;;;;4.57;1.45;;;;;;;6.10;100.00;100766.22;5046466;28;20024;-63
2023/12/23 01:10:15;;;;;;;7.70;1.67;;;;;;;6.11;100.00;100769.66;5066063;28;20059;-62
2023/12/23 01:12:40;;;;;;;9.23;2.35;;;;;;;6.15;100.00;100758.72;5051446;28;20025;-62
2023/12/23 01:15:06;;;;;;;10.52;2.40;;;;;;;6.22;100.00;100763.34;5040051;28;20033;-62
2023/12/23 01:17:31;;;;;;;8.90;2.10;;;;;;;6.28;100.00;100765.34;5030006;28;20025;-62
2023/12/23 01:19:56;;;;;;;10.95;3.45;;;;;;;6.41;100.00;100750.47;5052249;28;20358;-62
2023/12/23 01:22:22;;;;;;;13.07;2.25;;;;;;;6.49;100.00;100749.16;5042568;28;20028;-62
2023/12/23 01:24:47;;;;;;;13.70;2.72;;;;;;;6.59;100.00;100729.88;5046280;28;20357;-62
2023/12/23 01:27:12;;;;;;;11.70;2.13;;;;;;;6.65;100.00;100735.31;5046315;28;20033;-62
2023/12/23 01:29:37;;;;;;;9.15;2.00;;;;;;;6.70;100.00;100744.13;5055989;28;20465;-62
2023/12/23 01:32:03;;;;;;;12.85;2.30;;;;;;;6.75;100.00;100738.28;5040525;28;20079;-62
2023/12/23 01:34:28;;;;;;;9.13;2.20;;;;;;;6.80;100.00;100736.84;5048367;28;20545;-62
2023/12/23 01:36:53;;;;;;;6.65;1.70;;;;;;;6.87;100.00;100725.13;5049144;28;20489;-61
2023/12/23 01:39:19;;;;;;;8.35;2.10;;;;;;;6.88;100.00;100737.16;5047283;28;20029;-62
2023/12/23 01:41:44;;;;;;;11.60;2.30;;;;;;;6.90;100.00;100725.25;5047516;28;20031;-62
2023/12/23 01:44:09;;;;;;;11.60;2.28;;;;;;;6.94;100.00;100725.44;5049796;28;20428;-62
2023/12/23 01:46:35;;;;;;;8.02;2.00;;;;;;;6.96;100.00;100731.56;5051451;28;20024;-62
2023/12/23 01:49:01;;;;;;;9.65;1.85;;;;;;;7.01;100.00;100723.16;5042584;28;20063;-62
2023/12/23 01:51:28;;;;;;;11.45;2.00;;;;;;;7.05;100.00;100725.94;5045309;28;20033;-62
2023/12/23 01:54:01;;;;;;;10.25;2.45;;;;;;;7.06;100.00;100726.81;5043249;28;20029;-62
2023/12/23 01:56:26;;;;;;;8.60;2.08;;;;;;;7.07;100.00;100724.31;5045947;28;20436;-63
2023/12/23 01:58:52;;;;;;;12.70;2.47;;;;;;;7.07;100.00;100719.16;5059068;28;20029;-62
2023/12/23 02:01:17;;;;;;;10.02;2.20;;;;;;;7.10;100.00;100721.00;5046026;28;20025;-62
2023/12/23 02:03:43;;;;;;;7.80;2.03;;;;;;;7.08;100.00;100715.78;5052265;28;20090;-63
2023/12/23 02:06:08;;;;;;;7.85;1.85;;;;;;;7.12;100.00;100719.38;5047915;28;20488;-62
2023/12/23 02:08:34;;;;;;;9.98;1.77;;;;;;;7.14;100.00;100717.72;5065966;28;20036;-62
2023/12/23 02:11:12;;;;;;;8.80;1.88;;;;;;;7.14;100.00;100728.03;5052404;28;20359;-61
2023/12/23 02:13:48;;;;;;;13.18;2.10;;;;;;;7.17;100.00;100720.47;5042279;28;20109;-62
2023/12/23 02:16:15;;;;;;;5.05;1.52;;;;;;;7.20;100.00;100715.44;5048978;28;20390;-62
2023/12/23 02:18:41;;;;;;;10.23;1.70;;;;;;;7.20;100.00;100709.38;5046236;28;20029;-62
2023/12/23 02:21:06;;;;;;;10.35;2.25;;;;;;;7.19;100.00;100705.94;5047665;28;20036;-62
2023/12/23 02:23:31;;;;;;;9.73;2.33;;;;;;;7.19;100.00;100708.53;5056044;28;20118;-63
2023/12/23 02:26:00;;;;;;;8.52;1.90;;;;;;;7.19;100.00;100708.53;5048143;28;20466;-61
2023/12/23 02:28:25;;;;;;;6.22;1.90;;;;;;;7.21;100.00;100706.88;5049453;28;20044;-63
2023/12/23 02:30:53;;;;;;;7.65;2.17;;;;;;;7.20;100.00;100705.13;5050177;28;20021;-62
2023/12/23 02:33:19;;;;;;;7.30;1.63;;;;;;;7.19;100.00;100708.53;5050409;28;20492;-63
2023/12/23 02:35:45;;;;;;;8.90;1.90;;;;;;;7.23;100.00;100703.50;5049184;28;20025;-63
2023/12/23 02:38:10;;;;;;;6.50;1.75;;;;;;;7.22;100.00;100710.34;5042875;28;20025;-63
2023/12/23 02:40:36;;;;;;;12.13;2.35;;;;;;;7.25;100.00;100702.72;5049500;28;20036;-62
2023/12/23 02:43:01;;;;;;;13.40;2.88;;;;;;;7.25;100.00;100687.25;5054514;28;20025;-63
2023/12/23 02:45:27;;;;;;;9.88;2.10;;;;;;;7.25;100.00;100691.56;5045088;28;20036;-62
2023/12/23 02:47:52;;;;;;;8.88;2.60;;;;;;;7.26;100.00;100683.00;5045478;28;20583;-63
2023/12/23 02:50:18;;;;;;;9.98;2.28;;;;;;;7.25;100.00;100671.81;5048437;28;20033;-61
2023/12/23 02:52:43;;;;;;;12.77;2.70;;;;;;;7.27;100.00;100680.47;5053616;28;20525;-62
2023/12/23 02:55:08;;;;;;;9.73;2.20;;;;;;;7.28;100.00;100681.38;5051774;28;20404;-62
2023/12/23 02:57:33;;;;;;;11.60;2.42;;;;;;;7.28;100.00;100677.09;5059180;28;20039;-62
2023/12/23 02:59:58;;;;;;;10.13;2.03;;;;;;;7.32;100.00;100667.81;5053610;28;20060;-62
2023/12/23 03:02:24;;;;;;;10.18;2.13;;;;;;;7.32;100.00;100662.66;5050647;28;20029;-62
2023/12/23 03:04:49;;;;;;;13.13;3.03;;;;;;;7.32;100.00;100665.22;5050158;28;20369;-63
2023/12/23 03:07:14;;;;;;;12.32;2.95;;;;;;;7.36;100.00;100673.97;5048713;28;20033;-62
2023/12/23 03:09:39;;;;;;;8.55;2.40;;;;;;;7.33;100.00;100657.56;5049767;28;20029;-63
2023/12/23 03:12:05;;;;;;;8.93;2.45;;;;;;;7.36;100.00;100646.47;5048244;28;20033;-63
2023/12/23 03:14:32;;;;;;;10.93;2.28;;;;;;;7.37;100.00;100657.69;5049446;28;20012;-62
2023/12/23 03:16:57;;;;;;;7.90;1.52;;;;;;;7.39;100.00;100659.53;5049379;28;20021;-62
2023/12/23 03:19:22;;;;;;;7.03;1.70;;;;;;;7.39;100.00;100645.75;5038800;28;20457;-62
2023/12/23 03:21:48;;;;;;;12.10;2.17;;;;;;;7.36;100.00;100651.63;5049882;28;20029;-63
2023/12/23 03:24:13;;;;;;;7.82;2.10;;;;;;;7.39;100.00;100658.63;5048122;28;20033;-62
2023/12/23 03:26:39;;;;;;;11.05;1.90;;;;;;;7.39;100.00;100659.53;5029200;28;20167;-62
2023/12/23 03:29:07;;;;;;;7.90;1.98;;;;;;;7.41;100.00;100665.59;5047246;28;20041;-63
2023/12/23 03:31:33;;;;;;;11.38;2.58;;;;;;;7.41;100.00;100663.03;5049334;28;20183;-62
2023/12/23 03:34:02;;;;;;;6.93;1.83;;;;;;;7.43;100.00;100676.88;5046090;28;20138;-62
2023/12/23 03:36:27;;;;;;;6.53;2.15;;;;;;;7.45;100.00;100649.44;5038652;28;20029;-62
2023/12/23 03:38:53;;;;;;;9.75;2.60;;;;;;;7.49;100.00;100655.63;5061324;28;20151;-63
2023/12/23 03:41:19;;;;;;;5.72;2.13;;;;;;;7.51;100.00;100654.00;5067218;28;20017;-62
2023/12/23 03:43:44;;;;;;;11.50;2.45;;;;;;;7.50;100.00;100649.63;5042673;28;20037;-62
2023/12/23 03:46:09;;;;;;;7.65;2.08;;;;;;;7.50;100.00;100648.78;5043332;28;20051;-62
2023/12/23 03:48:35;;;;;;;15.05;2.50;;;;;;;7.50;100.00;100648.78;5054118;28;20421;-62
2023/12/23 03:51:00;;;;;;;8.43;2.22;;;;;;;7.50;100.00;100644.47;5048334;28;20273;-62
2023/12/23 03:53:25;;;;;;;9.25;2.10;;;;;;;7.51;100.00;100632.47;5057677;28;20080;-62
2023/12/23 03:55:51;;;;;;;10.48;2.28;;;;;;;7.51;100.00;100635.94;5053635;28;20473;-62
2023/12/23 03:58:16;;;;;;;8.82;2.28;;;;;;;7.50;100.00;100651.34;5048915;28;20025;-62
2023/12/23 04:00:41;;;;;;;8.00;2.22;;;;;;;7.52;100.00;100644.56;5047628;28;20360;-62
2023/12/23 04:03:06;;;;;;;7.57;2.35;;;;;;;7.51;100.00;100641.09;5048441;28;20074;-62
2023/12/23 04:05:32;;;;;;;10.38;2.10;;;;;;;7.51;100.00;100638.50;5049780;28;20037;-62
2023/12/23 04:07:57;;;;;;;9.57;2.42;;;;;;;7.53;100.00;100636.00;5048761;28;20027;-62
2023/12/23 04:10:22;;;;;;;8.18;2.15;;;;;;;7.54;100.00;100642.91;5048728;28;20416;-62
2023/12/23 04:12:48;;;;;;;8.02;2.65;;;;;;;7.53;100.00;100649.78;5047742;28;20025;-63
2023/12/23 04:15:13;;;;;;;11.48;3.35;;;;;;;7.51;100.00;100630.78;5047785;28;20036;-62
2023/12/23 04:17:42;;;;;;;10.77;2.50;;;;;;;7.51;100.00;100633.34;5048627;28;20032;-62
2023/12/23 04:20:08;;;;;;;11.38;2.33;;;;;;;7.56;100.00;100630.97;5058953;28;20129;-62
2023/12/23 04:22:34;;;;;;;8.18;2.33;;;;;;;7.59;100.00;100627.63;5037075;28;20132;-62
2023/12/23 04:24:59;;;;;;;8.13;2.10;;;;;;;7.60;100.00;100625.13;5047174;28;20515;-63
2023/12/23 04:27:25;;;;;;;7.65;2.42;;;;;;;7.56;100.00;100631.84;5056640;28;20064;-62
2023/12/23 04:29:50;;;;;;;7.97;2.22;;;;;;;7.56;100.00;100612.91;5050667;28;20032;-63
2023/12/23 04:32:16;;;;;;;4.68;1.63;;;;;;;7.57;100.00;100604.38;5049727;28;20047;-63
2023/12/23 04:34:41;;;;;;;10.60;2.35;;;;;;;7.56;100.00;100600.00;5048425;28;20578;-62
2023/12/23 04:37:07;;;;;;;8.98;2.13;;;;;;;7.61;100.00;100595.06;5047971;28;20028;-62
2023/12/23 04:39:32;;;;;;;8.85;2.08;;;;;;;7.61;100.00;100593.34;5034748;28;20029;-63
2023/12/23 04:41:57;;;;;;;8.85;2.20;;;;;;;7.61;100.00;100593.34;5048062;28;20028;-62
2023/12/23 04:44:23;;;;;;;8.07;1.80;;;;;;;7.59;100.00;100605.28;5047146;28;20047;-62
2023/12/23 04:46:50;;;;;;;6.53;2.17;;;;;;;7.59;100.00;100584.66;5048106;28;20138;-62
2023/12/23 04:49:15;;;;;;;9.18;1.83;;;;;;;7.62;100.00;100578.75;5046985;28;20024;-62
2023/12/23 04:51:43;;;;;;;8.38;2.05;;;;;;;7.59;100.00;100573.47;5047842;28;20358;-62
2023/12/23 04:54:12;;;;;;;7.22;1.80;;;;;;;7.59;100.00;100581.22;5046892;28;20035;-62
2023/12/23 04:56:37;;;;;;;8.73;2.10;;;;;;;7.58;100.00;100580.31;5047532;28;20029;-62
2023/12/23 04:59:03;;;;;;;11.30;1.95;;;;;;;7.59;100.00;100594.97;5030353;28;20068;-62
2023/12/23 05:01:28;;;;;;;10.70;1.90;;;;;;;7.57;100.00;100591.47;5051738;28;20063;-62
2023/12/23 05:03:54;;;;;;;6.70;1.58;;;;;;;7.58;100.00;100580.31;5065958;28;20024;-62
2023/12/23 05:06:22;;;;;;;9.00;2.22;;;;;;;7.58;100.00;100570.00;5043884;28;20029;-61
2023/12/23 05:08:47;;;;;;;9.32;2.00;;;;;;;7.57;100.00;100591.47;5039691;28;20053;-62
2023/12/23 05:11:13;;;;;;;7.32;2.13;;;;;;;7.55;100.00;100593.09;5040344;28;20089;-62
2023/12/23 05:13:38;;;;;;;5.90;1.80;;;;;;;7.56;100.00;100571.66;5065899;28;20070;-63
2023/12/23 05:16:03;;;;;;;5.25;1.77;;;;;;;7.55;100.00;100583.69;5067289;28;20020;-62
2023/12/23 05:18:29;;;;;;;6.00;1.98;;;;;;;7.58;100.00;100588.06;5043332;28;20053;-62
2023/12/23 05:20:54;;;;;;;12.00;2.08;;;;;;;7.59;100.00;100594.97;5039777;28;20496;-62
2023/12/23 05:23:19;;;;;;;9.90;1.98;;;;;;;7.58;100.00;100582.91;5057129;28;20044;-62
2023/12/23 05:25:45;;;;;;;6.47;1.73;;;;;;;7.58;100.00;100580.31;5045129;28;20035;-62
2023/12/23 05:28:10;;;;;;;6.78;2.33;;;;;;;7.56;100.00;100561.34;5067061;28;20453;-62
2023/12/23 05:30:36;;;;;;;11.05;1.90;;;;;;;7.58;100.00;100557.13;5062885;28;20027;-62
2023/12/23 05:33:01;;;;;;;9.45;1.95;;;;;;;7.58;100.00;100570.00;5046626;28;20131;-62
2023/12/23 05:35:26;;;;;;;12.05;2.10;;;;;;;7.60;100.00;100564.91;5046467;28;20033;-63
2023/12/23 05:37:51;;;;;;;11.10;2.05;;;;;;;7.61;100.00;100558.94;5046671;28;20481;-62
2023/12/23 05:40:17;;;;;;;8.52;1.98;;;;;;;7.61;100.00;100564.97;5036774;28;20500;-62
2023/12/23 05:42:42;;;;;;;6.38;1.88;;;;;;;7.62;100.00;100566.75;5057545;28;20155;-62
2023/12/23 05:45:08;;;;;;;7.75;2.00;;;;;;;7.63;100.00;100550.44;5048395;28;20025;-62
2023/12/23 05:47:33;;;;;;;7.43;1.90;;;;;;;7.62;100.00;100550.38;5047256;28;20081;-63
2023/12/23 05:49:58;;;;;;;8.93;2.08;;;;;;;7.64;100.00;100562.53;5045509;28;20025;-62
2023/12/23 05:52:24;;;;;;;7.20;1.77;;;;;;;7.65;100.00;100558.22;5047376;28;20053;-62
2023/12/23 05:54:49;;;;;;;6.60;1.77;;;;;;;7.64;100.00;100571.97;5048478;28;20040;-63
2023/12/23 05:57:15;;;;;;;10.60;2.15;;;;;;;7.64;100.00;100579.69;5046737;28;20058;-62
2023/12/23 05:59:40;;;;;;;6.75;3.05;;;;;;;7.64;100.00;100562.53;5047904;28;20028;-62
2023/12/23 06:02:05;;;;;;;7.82;1.70;;;;;;;7.69;100.00;100571.34;5053420;28;20111;-62
2023/12/23 06:04:30;;;;;;;5.75;1.77;;;;;;;7.66;100.00;100566.03;5051061;28;20029;-63
2023/12/23 06:06:56;;;;;;;10.82;2.17;;;;;;;7.70;100.00;100569.59;5051975;28;20048;-63
2023/12/23 06:09:21;;;;;;;6.82;2.17;;;;;;;7.68;100.00;100574.72;5049531;28;20029;-62
2023/12/23 06:11:46;;;;;;;9.82;2.05;;;;;;;7.69;100.00;100576.50;5050542;28;20020;-62
2023/12/23 06:14:11;;;;;;;9.77;1.85;;;;;;;7.71;100.00;100557.59;5052580;28;20423;-62
2023/12/23 06:16:39;;;;;;;10.23;2.50;;;;;;;7.73;100.00;100548.22;5049948;28;20064;-62
2023/12/23 06:19:05;;;;;;;9.75;2.58;;;;;;;7.74;100.00;100560.28;5052734;28;20078;-62
2023/12/23 06:21:30;;;;;;;10.57;2.45;;;;;;;7.76;100.00;100561.25;5054071;28;20021;-62
2023/12/23 06:23:55;;;;;;;11.45;2.28;;;;;;;7.79;100.00;100551.91;5051697;28;20021;-63
2023/12/23 06:26:21;;;;;;;13.95;2.42;;;;;;;7.76;100.00;100550.91;5055443;28;20044;-62
2023/12/23 06:28:46;;;;;;;7.03;2.72;;;;;;;7.80;100.00;100561.44;5054720;28;20368;-62
2023/12/23 06:31:11;;;;;;;8.98;1.90;;;;;;;7.76;100.00;100556.97;5060729;28;20115;-63
2023/12/23 06:33:37;;;;;;;7.63;1.92;;;;;;;7.80;100.00;100557.97;5062843;28;20032;-62
2023/12/23 06:36:03;;;;;;;8.93;2.30;;;;;;;7.77;100.00;100560.44;5049616;28;20151;-63
2023/12/23 06:38:28;;;;;;;8.90;2.40;;;;;;;7.79;100.00;100566.50;5049158;28;20040;-62
2023/12/23 06:40:54;;;;;;;7.72;2.10;;;;;;;7.79;100.00;100566.50;5049866;28;20511;-62
2023/12/23 06:43:19;;;;;;;10.20;2.08;;;;;;;7.77;100.00;100561.28;5054880;28;20373;-62
2023/12/23 06:45:45;;;;;;;7.03;1.80;;;;;;;7.77;100.00;100569.03;5048902;28;20029;-62
2023/12/23 06:48:10;;;;;;;11.18;2.90;;;;;;;7.79;100.00;100575.13;5050105;28;20370;-63
2023/12/23 06:50:36;;;;;;;8.18;2.00;;;;;;;7.79;100.00;100561.34;5062356;28;20033;-61
2023/12/23 06:53:01;;;;;;;10.75;2.10;;;;;;;7.79;100.00;100576.81;5067475;28;20279;-62
2023/12/23 06:55:26;;;;;;;10.38;2.10;;;;;;;7.77;100.00;100557.84;5043057;28;20025;-62
2023/12/23 06:57:53;;;;;;;11.60;2.28;;;;;;;7.77;100.00;100552.69;5067697;28;20033;-63
2023/12/23 07:00:18;;;;;;;11.75;2.28;;;;;;;7.78;100.00;100554.44;5043219;28;20025;-62
2023/12/23 07:02:44;;;;;;;9.68;2.17;;;;;;;7.79;100.00;100556.19;5050127;28;20470;-62
2023/12/23 07:05:09;;;;;;;9.73;2.40;;;;;;;7.80;100.00;100552.81;5033747;28;20037;-63
2023/12/23 07:07:34;;;;;;;12.73;2.28;;;;;;;7.83;100.00;100547.75;5048167;28;20481;-63
2023/12/23 07:09:59;;;;;;;9.57;2.75;;;;;;;7.84;100.00;100552.13;5063260;28;20060;-62
2023/12/23 07:12:25;;;;;;;8.90;2.22;;;;;;;7.86;100.00;100554.75;5050220;28;20048;-62
2023/12/23 07:14:50;;;;;;;11.93;2.10;;;;;;;7.84;100.00;100552.13;5049865;28;20025;-62
2023/12/23 07:17:15;;;;;;;8.45;1.77;;;;;;;7.85;100.00;100546.13;5064112;28;20575;-62
2023/12/23 07:19:41;;;;;;;7.68;2.30;;;;;;;7.83;100.00;100547.75;5038601;28;20113;-62
2023/12/23 07:22:06;;;;;;;10.32;3.10;;;;;;;7.85;100.00;100560.72;5057645;28;20025;-62
2023/12/23 07:24:31;;;;;;;9.10;2.05;;;;;;;7.85;100.00;100559.03;5050018;28;20463;-63
2023/12/23 07:26:56;;;;;;;5.85;1.50;;;;;;;7.85;100.00;100560.72;5040629;28;20026;-63
2023/12/23 07:29:22;;;;;;;8.32;2.00;;;;;;;7.86;100.00;100560.78;5048174;28;20444;-62
2023/12/23 07:31:47;;;;;;;8.20;2.20;;;;;;;7.89;100.00;100573.81;5052478;28;20144;-63
2023/12/23 07:34:12;;;;;;;6.65;1.70;;;;;;;7.91;100.00;100582.50;5049570;28;20391;-63
2023/12/23 07:36:37;;;;;;;11.70;2.03;;;;;;;7.91;100.00;100571.28;5046513;28;20032;-62
2023/12/23 07:39:05;;;;;;;10.38;2.28;;;;;;;7.95;100.00;100577.44;5044649;28;20031;-63
2023/12/23 07:41:30;;;;;;;11.57;3.08;;;;;;;7.96;100.00;100592.09;5032499;28;20127;-63
2023/12/23 07:43:56;;;;;;;7.90;1.65;;;;;;;7.98;100.00;100595.63;5046599;28;20036;-63
2023/12/23 07:46:21;;;;;;;8.07;1.92;;;;;;;8.02;100.00;100582.03;5063523;28;20039;-63
2023/12/23 07:48:47;;;;;;;6.97;1.83;;;;;;;8.02;100.00;100574.28;5064292;28;20033;-63
2023/12/23 07:51:14;;;;;;;8.40;1.73;;;;;;;8.07;100.00;100569.28;5044044;28;20678;-62
2023/12/23 07:53:40;;;;;;;9.63;2.05;;;;;;;8.07;100.00;100557.28;5048155;28;20044;-63
2023/12/23 07:56:06;;;;;;;7.35;1.80;;;;;;;8.09;100.00;100562.47;5041326;28;20024;-62
2023/12/23 07:58:31;;;;;;;7.72;2.40;;;;;;;8.11;100.00;100546.22;5040853;28;20032;-63
2023/12/23 08:00:56;;;;;;;8.30;1.83;;;;;;;8.12;100.00;100563.47;5047967;28;20025;-62
2023/12/23 08:03:22;;;;;;;9.98;2.05;;;;;;;8.13;100.00;100556.63;5037833;28;20032;-62
2023/12/23 08:05:47;;;;;;;6.40;1.50;;;;;;;8.12;100.00;100568.66;5045742;28;20136;-63
2023/12/23 08:08:13;;;;;;;9.85;2.53;;;;;;;8.12;100.00;100563.47;5058380;28;20033;-63
2023/12/23 08:10:38;;;;;;;8.68;1.60;;;;;;;8.13;100.00;100557.47;5040553;28;20112;-62
2023/12/23 08:13:04;;;;;;;7.20;1.33;;;;;;;8.15;100.00;100560.13;5039470;28;20116;-63
2023/12/23 08:15:29;;;;;;;5.70;1.60;;;;;;;8.20;100.00;100573.22;5045557;28;20037;-62
2023/12/23 08:17:54;;;;;;;7.07;1.38;;;;;;;8.21;100.00;100575.84;5045227;28;20028;-63
2023/12/23 08:20:20;;;;;;;8.15;1.63;;;;;;;8.21;100.00;100574.97;5045709;28;20067;-63
2023/12/23 08:22:45;;;;;;;7.30;1.77;;;;;;;8.23;100.00;100583.66;5059455;28;20453;-62
2023/12/23 08:25:11;;;;;;;9.77;1.60;;;;;;;8.27;100.00;100606.19;5041263;28;20099;-62
2023/12/23 08:27:39;;;;;;;8.63;2.55;;;;;;;8.28;100.00;100589.88;5045992;28;20028;-63
2023/12/23 08:30:06;;;;;;;5.90;1.75;;;;;;;8.28;100.00;100582.13;5045470;28;20424;-62
2023/12/23 08:32:32;;;;;;;10.73;1.92;;;;;;;8.32;100.00;100589.16;5038684;28;20028;-62
2023/12/23 08:34:58;;;;;;;6.20;1.60;;;;;;;8.35;100.00;100581.53;5048101;28;20086;-63
2023/12/23 08:37:23;;;;;;;7.65;2.22;;;;;;;8.35;100.00;100584.09;5049563;28;20129;-63
2023/12/23 08:39:50;;;;;;;7.18;1.83;;;;;;;8.35;100.00;100589.28;5048193;28;20028;-62
2023/12/23 08:42:15;;;;;;;7.88;2.05;;;;;;;8.36;100.00;100598.78;5052882;28;20043;-62
2023/12/23 08:44:47;;;;;;;7.20;1.42;;;;;;;8.36;100.00;100601.38;5050871;27;20401;-65
2023/12/23 08:47:13;;;;;;;8.13;2.13;;;;;;;8.35;100.00;100604.75;5047445;28;20444;-63
2023/12/23 08:49:39;;;;;;;5.07;1.25;;;;;;;8.37;100.00;100590.22;5041729;28;20017;-63
2023/12/23 08:52:05;;;;;;;4.10;1.50;;;;;;;8.41;100.00;100593.78;5041194;28;20024;-64
2023/12/23 08:54:30;;;;;;;7.88;1.60;;;;;;;8.39;100.00;100583.41;5046444;28;20040;-63
2023/12/23 08:56:55;;;;;;;8.05;2.20;;;;;;;8.39;100.00;100600.59;5047537;28;20024;-63
2023/12/23 08:59:21;;;;;;;7.38;1.85;;;;;;;8.38;100.00;100617.78;5045268;28;20107;-63
2023/12/23 09:01:46;;;;;;;6.30;1.77;;;;;;;8.38;100.00;100604.88;5054479;28;20377;-63
2023/12/23 09:04:11;;;;;;;8.15;2.05;;;;;;;8.40;100.00;100617.88;5053989;28;20458;-63
2023/12/23 09:06:37;;;;;;;7.72;1.65;;;;;;;8.40;100.00;100613.56;5042543;28;20033;-63
2023/12/23 09:09:03;;;;;;;6.53;1.90;;;;;;;8.37;100.00;100623.78;5043330;28;20488;-63
2023/12/23 09:11:28;;;;;;;5.80;1.38;;;;;;;8.34;100.00;100623.66;5044107;28;20029;-63
2023/12/23 09:13:53;;;;;;;8.07;1.55;;;;;;;8.29;100.00;100631.22;5043202;28;20573;-62
2023/12/23 09:16:19;;;;;;;8.43;1.75;;;;;;;8.27;100.00;100634.59;5036456;28;20389;-62
2023/12/23 09:18:44;;;;;;;9.70;1.65;;;;;;;8.26;100.00;100635.38;5043059;28;20029;-63
2023/12/23 09:21:10;;;;;;;7.63;2.20;;;;;;;8.22;100.00;100625.78;5043970;28;20029;-63
2023/12/23 09:23:37;;;;;;;7.22;1.40;;;;;;;8.21;100.00;100621.44;5050119;28;20049;-63
2023/12/23 09:26:02;;;;;;;7.32;1.80;;;;;;;8.15;100.00;100622.97;5044247;28;20080;-62
2023/12/23 09:28:27;;;;;;;7.32;1.50;;;;;;;8.15;100.00;100630.69;5043273;28;20112;-63
2023/12/23 09:30:52;;;;;;;6.00;1.13;;;;;;;8.11;100.00;100627.94;5042830;28;20067;-63
2023/12/23 09:33:18;;;;;;;5.65;1.30;;;;;;;8.11;100.00;100633.13;5042908;28;20059;-63
2023/12/23 09:35:43;;;;;;;4.97;1.40;;;;;;;8.10;100.00;100634.81;5038556;28;20140;-63
2023/12/23 09:38:10;;;;;;;11.32;1.85;;;;;;;8.16;100.00;100637.63;5042484;28;20033;-64
2023/12/23 09:40:36;;;;;;;7.40;1.88;;;;;;;8.14;100.00;100640.97;5043187;28;20052;-63
2023/12/23 09:43:01;;;;;;;5.68;1.60;;;;;;;8.15;100.00;100655.63;5029904;28;20041;-63
2023/12/23 09:45:27;;;;;;;6.30;1.50;;;;;;;8.15;100.00;100647.88;5042353;28;20052;-64
2023/12/23 09:47:52;;;;;;;7.93;1.55;;;;;;;8.17;100.00;100656.56;5042461;28;20526;-63
2023/12/23 09:50:18;;;;;;;6.03;1.40;;;;;;;8.17;100.00;100636.81;5042957;28;20036;-62
2023/12/23 09:52:45;;;;;;;6.90;1.40;;;;;;;8.17;100.00;100654.00;5042364;28;20450;-63
2023/12/23 09:55:11;;;;;;;10.48;2.08;;;;;;;8.21;100.00;100649.81;5043843;28;20068;-63
2023/12/23 09:57:37;;;;;;;7.40;1.30;;;;;;;8.24;100.00;100647.38;5031268;28;20034;-63
2023/12/23 10:00:03;;;;;;;6.75;1.90;;;;;;;8.23;100.00;100663.69;5038364;28;20083;-63
2023/12/23 10:02:28;;;;;;;7.70;1.55;;;;;;;8.24;100.00;100668.91;5031124;28;20062;-63
2023/12/23 10:04:53;;;;;;;10.20;2.22;;;;;;;8.27;100.00;100679.34;5029321;28;20033;-63
2023/12/23 10:07:18;;;;;;;7.85;1.55;;;;;;;8.28;100.00;100669.91;5028281;28;20029;-63
2023/12/23 10:09:47;;;;;;;10.95;1.70;;;;;;;8.32;100.00;100666.63;5029376;28;20064;-63
2023/12/23 10:12:13;;;;;;;5.70;1.73;;;;;;;8.32;100.00;100679.53;5029134;28;20148;-62
2023/12/23 10:14:41;;;;;;;6.75;1.38;;;;;;;8.33;100.00;100677.84;5035573;28;20107;-62
2023/12/23 10:17:06;;;;;;;8.40;1.80;;;;;;;8.34;100.00;100679.59;5036471;28;20040;-63
2023/12/23 10:19:31;;;;;;;6.72;1.60;;;;;;;8.36;100.00;100663.34;5036142;28;20276;-63
2023/12/23 10:21:57;;;;;;;6.35;1.77;;;;;;;8.36;100.00;100658.19;5028448;28;20511;-63
2023/12/23 10:24:22;;;;;;;4.85;1.15;;;;;;;8.40;100.00;100665.19;5036307;28;20079;-62
2023/12/23 10:26:47;;;;;;;7.35;1.33;;;;;;;8.42;100.00;100660.09;5041558;28;20028;-63
2023/12/23 10:29:15;;;;;;;5.75;1.35;;;;;;;8.40;100.00;100667.78;5028799;28;20021;-63
2023/12/23 10:31:42;;;;;;;7.40;1.30;;;;;;;8.46;100.00;100658.50;5018912;28;20030;-64
2023/12/23 10:34:11;;;;;;;4.28;1.15;;;;;;;8.49;100.00;100661.22;5013443;28;20045;-63
2023/12/23 10:36:41;;;;;;;7.53;1.73;;;;;;;8.50;100.00;100650.94;5023734;28;20040;-62
2023/12/23 10:39:14;;;;;;;11.65;1.70;;;;;;;8.52;100.00;100656.16;5028678;28;20033;-63
2023/12/23 10:41:48;;;;;;;7.45;1.63;;;;;;;8.55;100.00;100666.59;5036422;28;20032;-63
2023/12/23 10:44:16;;;;;;;8.00;1.40;;;;;;;8.59;100.00;100650.44;5028148;28;20481;-62
2023/12/23 10:46:42;;;;;;;6.75;1.42;;;;;;;8.63;100.00;100665.22;5028179;28;20104;-63
2023/12/23 10:49:09;;;;;;;6.07;1.23;;;;;;;8.65;100.00;100650.66;5028755;28;20061;-63
2023/12/23 10:51:34;;;;;;;6.60;1.40;;;;;;;8.64;100.00;100648.91;5039468;28;20409;-63
2023/12/23 10:54:01;;;;;;;5.28;1.38;;;;;;;8.67;100.00;100650.72;5041158;28;20021;-64
2023/12/23 10:56:26;;;;;;;6.05;1.33;;;;;;;8.70;100.00;100642.19;5020051;28;20401;-63
2023/12/23 10:58:54;;;;;;;4.85;1.10;;;;;;;8.74;100.00;100633.75;5027931;28;20026;-63
2023/12/23 11:01:20;;;;;;;7.88;1.50;;;;;;;8.78;100.00;100651.09;5034073;28;20041;-63
2023/12/23 11:03:50;;;;;;;5.75;1.52;;;;;;;8.78;100.00;100651.09;5024093;28;20083;-63
2023/12/23 11:06:18;;;;;;;7.10;1.25;;;;;;;8.80;100.00;100644.28;5022394;28;20036;-63
2023/12/23 11:08:44;;;;;;;11.48;1.77;;;;;;;8.78;100.00;100635.59;5024734;28;20037;-63
2023/12/23 11:11:10;;;;;;;3.47;1.30;;;;;;;8.80;100.00;100643.41;5036312;28;20036;-63
2023/12/23 11:13:36;;;;;;;4.05;1.35;;;;;;;8.84;100.00;100650.44;5028591;28;20025;-63
2023/12/23 11:16:02;;;;;;;8.35;1.20;;;;;;;8.89;100.00;100669.59;5028147;28;20028;-63
2023/12/23 11:18:27;;;;;;;8.32;1.42;;;;;;;8.86;100.00;100662.63;5027466;28;20798;-64